Terminal Aerodrome Forecast
Issued by NWS Billings, MT

Home | Current Version | Previous Version | Graphics & Text | Print | Product List | Glossary On
Versions: 1 2 3 4 5 6 7 8 9 10 11 12 13 14 15 16 17 18 19 20 21 22 23 24 25 26
953
FTUS45 KBYZ 191727
TAFMLS
TAF
KMLS 191727Z 1918/2018 15010KT P6SM FEW100 BKN250
     FM200900 24010KT P6SM VCSH SCT040 OVC090=

USA.gov is the U.S. government's official web portal to all federal, state and local government web resources and services.